ADDS METAR Data INFO
IDs: Format: Raw Decoded Include TAF

Data at: 1544 UTC 12 Dec 2017

KVVV 121535Z AUTO 19004KT 10SM BKN045 BKN110 M05/M07 A3011 RMK AO2 TSNO
KVVV 121515Z AUTO 00000KT 10SM SCT047 SCT110 M06/M08 A3012 RMK AO2 TSNO
KVVV 121455Z AUTO 00000KT 10SM SCT050 M07/M09 A3013 RMK AO2 TSNO
KVVV 121435Z AUTO 00000KT 10SM SCT050 M08/M10 A3013 RMK AO2 TSNO
KVVV 121415Z AUTO 17003KT 10SM BKN050 M08/M10 A3013 RMK AO2 TSNO
KVVV 121355Z AUTO 00000KT 10SM BKN050 M08/M11 A3015 RMK AO2 TSNO
KVVV 121335Z AUTO 18004KT 10SM BKN050 M09/M11 A3016 RMK AO2 TSNO
KVVV 121315Z AUTO 19004KT 10SM OVC055 M09/M11 A3017 RMK AO2 TSNO
KVVV 121255Z AUTO 19004KT 10SM SCT024 OVC055 M09/M11 A3018 RMK AO2 TSNO
KVVV 121235Z AUTO 19004KT 10SM OVC024 M10/M12 A3019 RMK AO2 TSNO
KVVV 121215Z AUTO 19003KT 10SM OVC024 M11/M12 A3021 RMK AO2 TSNO
KVVV 121155Z AUTO 18003KT 10SM OVC024 M11/M13 A3022 RMK AO2 TSNO
KVVV 121135Z AUTO 00000KT 10SM OVC026 M11/M13 A3023 RMK AO2 TSNO
KVVV 121115Z AUTO 18003KT 10SM BKN026 M12/M14 A3023 RMK AO2 TSNO
KVVV 121055Z AUTO 00000KT 10SM SCT026 M13/M14 A3025 RMK AO2 TSNO
KVVV 121035Z AUTO 00000KT 10SM CLR M13/M14 A3026 RMK AO2 TSNO
KVVV 121015Z AUTO 22004KT 10SM CLR M13/M14 A3027 RMK AO2 TSNO
KVVV 120955Z AUTO 00000KT 10SM CLR M13/M14 A3029 RMK AO2 TSNO
KVVV 120935Z AUTO 00000KT 10SM CLR M13/M14 A3029 RMK AO2 TSNO
KVVV 120915Z AUTO 26003KT 10SM CLR M12/M14 A3029 RMK AO2 TSNO
KVVV 120855Z AUTO 00000KT 10SM CLR M12/M14 A3030 RMK AO2 TSNO
KVVV 120835Z AUTO 28003KT 10SM CLR M12/M14 A3031 RMK AO2 TSNO
KVVV 120815Z AUTO 32003KT 10SM CLR M12/M14 A3031 RMK AO2 TSNO
KVVV 120755Z AUTO 30004KT 10SM CLR M12/M14 A3032 RMK AO2 TSNO
KVVV 120735Z AUTO 30004KT 10SM CLR M12/M14 A3032 RMK AO2 TSNO
KVVV 120715Z AUTO 29003KT 10SM CLR M12/M14 A3032 RMK AO2 TSNO
KVVV 120655Z AUTO 31004KT 10SM CLR M11/M14 A3033 RMK AO2 TSNO
KVVV 120635Z AUTO 30005KT 10SM CLR M11/M14 A3033 RMK AO2 TSNO
KVVV 120615Z AUTO 30003KT 10SM CLR M12/M14 A3033 RMK AO2 TSNO
KVVV 120555Z AUTO 32006KT 10SM CLR M11/M14 A3033 RMK AO2 TSNO
KVVV 120535Z AUTO 32006KT 10SM CLR M11/M14 A3033 RMK AO2 TSNO
KVVV 120515Z AUTO 32007KT 10SM CLR M11/M14 A3033 RMK AO2 TSNO
KVVV 120455Z AUTO 32006KT 10SM CLR M11/M13 A3034 RMK AO2 TSNO
KVVV 120435Z AUTO 32008KT 10SM CLR M11/M13 A3034 RMK AO2 TSNO
KVVV 120415Z AUTO 32008KT 10SM CLR M11/M13 A3035 RMK AO2 TSNO
KVVV 120355Z AUTO 33008KT 10SM CLR M11/M13 A3034 RMK AO2 TSNO
KVVV 120335Z AUTO 34008KT 10SM CLR M11/M13 A3033 RMK AO2 TSNO
KVVV 120315Z AUTO 34010KT 10SM CLR M11/M13 A3034 RMK AO2 TSNO
KVVV 120255Z AUTO 34009G16KT 10SM CLR M10/M13 A3033 RMK AO2 TSNO
KVVV 120235Z AUTO 34011KT 10SM CLR M10/M13 A3033 RMK AO2 TSNO
KVVV 120215Z AUTO 34010KT 10SM CLR M10/M13 A3033 RMK AO2 TSNO
KVVV 120155Z AUTO 35014G17KT 10SM CLR M09/M13 A3032 RMK AO2 TSNO
KVVV 120135Z AUTO 34013G19KT 10SM CLR M09/M12 A3032 RMK AO2 TSNO
KVVV 120115Z AUTO 34013KT 10SM CLR M09/M12 A3031 RMK AO2 TSNO
KVVV 120055Z AUTO 35016G19KT 10SM CLR M08/M12 A3031 RMK AO2 TSNO
KVVV 120036Z AUTO 35016G21KT 10SM CLR M08/M12 A3029 RMK AO2 TSNO
KVVV 120015Z AUTO 34021G25KT 10SM CLR M07/M11 A3028 RMK AO2 TSNO
KVVV 112355Z AUTO 34016G23KT 10SM CLR M07/M11 A3027 RMK AO2 TSNO
KVVV 112335Z AUTO 35013G18KT 10SM CLR M07/M11 A3027 RMK AO2 TSNO
KVVV 112315Z AUTO 33015G20KT 10SM CLR M06/M11 A3025 RMK AO2 TSNO
KVVV 112255Z AUTO 34016G23KT 10SM CLR M06/M11 A3023 RMK AO2 TSNO
KVVV 112235Z AUTO 34017G21KT 10SM CLR M06/M11 A3022 RMK AO2 TSNO
KVVV 112215Z AUTO 34021G27KT 10SM SCT025 M06/M11 A3020 RMK AO2 TSNO
KVVV 112155Z AUTO 34020G34KT 10SM SCT023 M06/M11 A3019 RMK AO2 TSNO
KVVV 112135Z AUTO 34025G30KT 10SM BKN023 M05/M10 A3017 RMK AO2 TSNO
KVVV 112115Z AUTO 34021G27KT 10SM OVC021 M04/M09 A3016 RMK AO2 TSNO
KVVV 112055Z AUTO 34021G30KT 10SM OVC021 M04/M09 A3016 RMK AO2 TSNO
KVVV 112035Z AUTO 33025G33KT 10SM OVC019 M04/M09 A3014 RMK AO2 TSNO
KVVV 112015Z AUTO 34022G33KT 10SM OVC019 M04/M08 A3012 RMK AO2 TSNO
KVVV 111955Z AUTO 35022G31KT 10SM OVC019 M04/M08 A3011 RMK AO2 TSNO
KVVV 111935Z AUTO 34023G35KT 10SM OVC017 M03/M07 A3010 RMK AO2 TSNO
KVVV 111855Z AUTO 34025G38KT 10SM OVC015 M03/M06 A3008 RMK AO2 TSNO
KVVV 111835Z AUTO 34026G30KT 10SM OVC013 M02/M05 A3006 RMK AO2 TSNO
KVVV 111815Z AUTO 34026G36KT 10SM OVC013 M02/M05 A3005 RMK AO2 TSNO
KVVV 111755Z AUTO 35026G32KT 10SM OVC013 M02/M05 A3004 RMK AO2 TSNO
KVVV 111735Z AUTO 34031G40KT 10SM OVC013 M02/M05 A3002 RMK AO2 TSNO
KVVV 111715Z AUTO 34027G35KT 10SM OVC013 M02/M04 A3000 RMK AO2 TSNO
KVVV 111655Z AUTO 34026G34KT 10SM OVC015 M01/M04 A2999 RMK AO2 TSNO
KVVV 111635Z AUTO 34028G36KT 10SM OVC015 M01/M03 A2997 RMK AO2 TSNO
KVVV 111616Z AUTO 34025G35KT 10SM OVC015 00/M02 A2995 RMK AO2 TSNO
KVVV 111555Z AUTO 34029G37KT 10SM OVC013 01/M02 A2991 RMK AO2 TSNO
KVVV 111535Z AUTO 34021G29KT 10SM OVC015 02/M01 A2989 RMK AO2 TSNO
KVVV 111515Z AUTO 34018G33KT 10SM OVC017 02/00 A2987 RMK AO2 TSNO
KVVV 111455Z AUTO 33016G23KT 10SM SCT010 BKN014 OVC021 02/00 A2986 RMK AO2 TSNO
KVVV 111435Z AUTO 33016G21KT 4SM -SN BKN010 OVC016 02/00 A2985 RMK AO2 TSNO
KVVV 111415Z AUTO 33017G29KT 4SM DZ OVC015 03/00 A2983 RMK AO2 TSNO
KVVV 111355Z AUTO 33020G29KT 10SM OVC017 03/00 A2981 RMK AO2 TSNO
KVVV 111335Z AUTO 32017G26KT 10SM BKN017 OVC022 03/00 A2979 RMK AO2 TSNO
KVVV 111315Z AUTO 33017G24KT 10SM OVC020 03/00 A2978 RMK AO2 TSNO
KVVV 111255Z AUTO 32015G24KT 10SM BKN020 BKN024 OVC047 04/00 A2977 RMK AO2 TSNO
KVVV 111235Z AUTO 31016G24KT 10SM OVC022 04/00 A2976 RMK AO2 TSNO
KVVV 111215Z AUTO 31012G16KT 10SM -RA OVC024 03/00 A2976 RMK AO2 TSNO
KVVV 111155Z AUTO 31014G20KT 10SM OVC022 03/00 A2975 RMK AO2 TSNO
KVVV 111135Z AUTO 32016G25KT 10SM OVC022 04/M01 A2975 RMK AO2 TSNO
KVVV 111115Z AUTO 32020G24KT 10SM BKN022 BKN027 04/M02 A2974 RMK AO2 TSNO
KVVV 111055Z AUTO 31014G21KT 10SM CLR 04/M03 A2974 RMK AO2 TSNO
KVVV 111035Z AUTO 31012G16KT 10SM CLR 04/M03 A2973 RMK AO2 TSNO
KVVV 111015Z AUTO 29008KT 10SM SCT095 03/M03 A2973 RMK AO2 TSNO
KVVV 110955Z AUTO 27005KT 10SM SCT085 02/M03 A2974 RMK AO2 TSNO
KVVV 110935Z AUTO 23006KT 10SM SCT070 SCT085 02/M03 A2973 RMK AO2 TSNO
KVVV 110915Z AUTO 23003KT 10SM BKN070 BKN095 01/M03 A2974 RMK AO2 TSNO
KVVV 110855Z AUTO 21004KT 10SM BKN080 00/M04 A2975 RMK AO2 TSNO
KVVV 110835Z AUTO 27003KT 10SM SCT080 01/M04 A2977 RMK AO2 TSNO
KVVV 110815Z AUTO 25004KT 10SM CLR 01/M03 A2977 RMK AO2 TSNO
KVVV 110755Z AUTO 26004KT 10SM CLR 02/M03 A2979 RMK AO2 TSNO
KVVV 110735Z AUTO 25005KT 10SM CLR 01/M03 A2980 RMK AO2 TSNO
KVVV 110715Z AUTO 23006KT 10SM SCT100 01/M03 A2980 RMK AO2 TSNO
KVVV 110655Z AUTO 21003KT 10SM SCT100 120 00/M03 A2983 RMK AO2 TSNO
KVVV 110635Z AUTO 00000KT 10SM SCT120 M01/M03 A2983 RMK AO2 TSNO
KVVV 110615Z AUTO 00000KT 10SM CLR M01/M03 A2984 RMK AO2 TSNO
KVVV 110555Z AUTO 00000KT 10SM CLR 00/M03 A2985 RMK AO2 TSNO
KVVV 110535Z AUTO 00000KT 10SM SCT110 00/M03 A2986 RMK AO2 TSNO
KVVV 110515Z AUTO 17005KT 10SM -SN SCT050 SCT065 BKN110 00/M03 A2986 RMK AO2 TSNO
KVVV 110455Z AUTO 16003KT 10SM SCT070 00/M03 A2988 RMK AO2 TSNO
KVVV 110435Z AUTO 16003KT 10SM BKN070 BKN075 M01/M04 A2990 RMK AO2 TSNO
KVVV 110415Z AUTO 15005KT 10SM SCT070 SCT075 SCT090 M01/M04 A2990 RMK AO2 TSNO
KVVV 110355Z AUTO 18006KT 10SM SCT070 BKN090 00/M04 A2992 RMK AO2 TSNO